createdAt,value
2023-03-06T00:00:21.761Z,2.84
2023-03-06T00:03:09.796Z,2.76
2023-03-06T00:05:37.927Z,2.68
2023-03-06T00:08:06.392Z,2.62
2023-03-06T00:10:34.453Z,2.56
2023-03-06T00:13:07.189Z,2.50
2023-03-06T00:15:35.212Z,2.46
2023-03-06T00:18:04.443Z,2.42
2023-03-06T00:20:33.152Z,2.36
2023-03-06T00:23:01.253Z,2.32
2023-03-06T00:25:29.344Z,2.26
2023-03-06T00:27:57.442Z,2.21
2023-03-06T00:30:25.660Z,2.16
2023-03-06T00:32:53.958Z,2.11
2023-03-06T00:35:22.317Z,2.08
2023-03-06T00:37:50.430Z,2.03
2023-03-06T00:40:19.666Z,1.99
2023-03-06T00:42:48.363Z,1.95
2023-03-06T00:45:16.499Z,1.91
2023-03-06T00:47:44.559Z,1.87
2023-03-06T00:50:12.576Z,1.83
2023-03-06T00:52:42.215Z,1.79
2023-03-06T00:55:10.573Z,1.74
2023-03-06T00:57:38.556Z,1.68
2023-03-06T01:00:07.066Z,1.64
2023-03-06T01:02:35.382Z,1.61
2023-03-06T01:05:03.755Z,1.60
2023-03-06T01:07:34.246Z,1.59
2023-03-06T01:10:02.911Z,1.60
2023-03-06T01:12:30.908Z,1.60
2023-03-06T01:14:58.959Z,1.60
2023-03-06T01:17:27.054Z,1.61
2023-03-06T01:19:54.986Z,1.63
2023-03-06T01:22:23.015Z,1.65
2023-03-06T01:24:51.044Z,1.65
2023-03-06T01:27:18.996Z,1.63
2023-03-06T01:29:47.237Z,1.62
2023-03-06T01:32:15.150Z,1.60
2023-03-06T01:34:43.177Z,1.57
2023-03-06T01:37:11.230Z,1.53
2023-03-06T01:39:39.214Z,1.47
2023-03-06T01:42:07.568Z,1.43
2023-03-06T01:44:35.606Z,1.37
2023-03-06T01:47:03.685Z,1.30
2023-03-06T01:49:34.341Z,1.24
2023-03-06T01:52:04.298Z,1.17
2023-03-06T01:54:40.268Z,1.10
2023-03-06T01:57:19.261Z,1.00
2023-03-06T01:59:51.686Z,0.89
2023-03-06T02:02:20.153Z,0.79
2023-03-06T02:04:48.685Z,0.68
2023-03-06T02:07:19.049Z,0.58
2023-03-06T02:09:47.192Z,0.49
2023-03-06T02:12:19.239Z,0.39
2023-03-06T02:14:47.851Z,0.29
2023-03-06T02:17:18.408Z,0.23
2023-03-06T02:19:49.451Z,0.15
2023-03-06T02:22:21.050Z,0.08
2023-03-06T02:24:58.463Z,0.01
2023-03-06T02:27:27.246Z,-0.06
2023-03-06T02:29:56.120Z,-0.12
2023-03-06T02:32:24.327Z,-0.18
2023-03-06T02:34:54.523Z,-0.24
2023-03-06T02:37:24.043Z,-0.30
2023-03-06T02:39:54.996Z,-0.37
2023-03-06T02:42:25.108Z,-0.42
2023-03-06T02:44:55.842Z,-0.49
2023-03-06T02:47:23.927Z,-0.55
2023-03-06T02:49:52.433Z,-0.59
2023-03-06T02:52:20.440Z,-0.64
2023-03-06T02:54:48.340Z,-0.68
2023-03-06T02:57:16.988Z,-0.70
2023-03-06T02:59:46.138Z,-0.74
2023-03-06T03:02:14.204Z,-0.77
2023-03-06T03:04:42.317Z,-0.80
2023-03-06T03:07:10.561Z,-0.83
2023-03-06T03:09:39.763Z,-0.87
2023-03-06T03:12:08.437Z,-0.92
2023-03-06T03:14:36.734Z,-0.95
2023-03-06T03:17:04.797Z,-0.97
2023-03-06T03:19:32.946Z,-1.00
2023-03-06T03:22:01.123Z,-1.03
2023-03-06T03:24:29.446Z,-1.04
2023-03-06T03:26:57.433Z,-1.03
2023-03-06T03:29:25.647Z,-1.02
2023-03-06T03:31:54.912Z,-1.00
2023-03-06T03:34:25.622Z,-0.96
2023-03-06T03:36:55.007Z,-0.94
2023-03-06T03:39:23.188Z,-0.91
2023-03-06T03:41:51.464Z,-0.89
2023-03-06T03:44:20.860Z,-0.86
2023-03-06T03:46:49.489Z,-0.83
2023-03-06T03:49:20.897Z,-0.79
2023-03-06T03:51:49.482Z,-0.75
2023-03-06T03:54:18.212Z,-0.70
2023-03-06T03:56:48.085Z,-0.64
2023-03-06T03:59:21.282Z,-0.56
2023-03-06T04:02:15.918Z,-0.51
2023-03-06T04:04:52.688Z,-0.52
2023-03-06T04:07:22.142Z,-0.55
2023-03-06T04:09:50.668Z,-0.59
2023-03-06T04:12:19.132Z,-0.63
2023-03-06T04:14:47.999Z,-0.67
2023-03-06T04:17:16.795Z,-0.74
2023-03-06T04:19:45.727Z,-0.81
2023-03-06T04:22:13.854Z,-0.89
2023-03-06T04:24:42.129Z,-0.98
2023-03-06T04:27:10.807Z,-1.05
2023-03-06T04:29:39.096Z,-1.12
2023-03-06T04:32:07.701Z,-1.19
2023-03-06T04:34:35.957Z,-1.27
2023-03-06T04:37:04.441Z,-1.34
2023-03-06T04:39:32.725Z,-1.40
2023-03-06T04:42:00.799Z,-1.46
2023-03-06T04:44:29.373Z,-1.51
2023-03-06T04:46:57.549Z,-1.55
2023-03-06T04:49:25.616Z,-1.58
2023-03-06T04:51:53.828Z,-1.60
2023-03-06T04:54:21.765Z,-1.63
2023-03-06T04:56:50.039Z,-1.65
2023-03-06T04:59:18.215Z,-1.66
2023-03-06T05:01:46.195Z,-1.67
2023-03-06T05:04:14.265Z,-1.66
2023-03-06T05:06:42.489Z,-1.65
2023-03-06T05:09:10.704Z,-1.63
2023-03-06T05:11:38.875Z,-1.59
2023-03-06T05:14:06.954Z,-1.56
2023-03-06T05:16:35.378Z,-1.53
2023-03-06T05:19:03.703Z,-1.49
2023-03-06T05:21:31.813Z,-1.42
2023-03-06T05:24:00.078Z,-1.36
2023-03-06T05:26:28.744Z,-1.28
2023-03-06T05:28:57.089Z,-1.19
2023-03-06T05:31:25.474Z,-1.09
2023-03-06T05:33:53.772Z,-0.98
2023-03-06T05:36:21.746Z,-0.80
2023-03-06T05:38:50.519Z,-0.57
2023-03-06T05:41:18.815Z,-0.32
2023-03-06T05:43:47.652Z,-0.05
2023-03-06T05:46:15.657Z,0.21
2023-03-06T05:48:45.331Z,0.67
2023-03-06T05:51:14.617Z,1.40
2023-03-06T05:53:42.667Z,2.17
2023-03-06T05:56:11.242Z,3.00
2023-03-06T05:58:39.975Z,3.77
2023-03-06T06:01:10.104Z,4.55
2023-03-06T06:03:38.799Z,5.48
2023-03-06T06:06:07.868Z,6.31
2023-03-06T06:08:36.007Z,6.99
2023-03-06T06:11:08.020Z,7.59
2023-03-06T06:13:36.556Z,8.22
2023-03-06T06:16:12.169Z,8.65
2023-03-06T06:18:41.457Z,9.14
2023-03-06T06:21:10.667Z,9.59
2023-03-06T06:23:39.258Z,10.10
2023-03-06T06:26:08.928Z,10.47
2023-03-06T06:28:37.578Z,10.81
2023-03-06T06:31:09.690Z,11.13
2023-03-06T06:33:38.842Z,11.46
2023-03-06T06:36:14.954Z,11.78
2023-03-06T06:38:43.433Z,12.06
2023-03-06T06:41:36.070Z,12.30
2023-03-06T06:44:00.002Z,12.41
2023-03-06T06:47:10.794Z,12.45
2023-03-06T06:49:16.523Z,12.66
2023-03-06T06:51:45.108Z,12.88
2023-03-06T06:54:13.118Z,12.81
2023-03-06T06:56:41.231Z,12.90
2023-03-06T06:59:16.657Z,12.93
2023-03-06T07:01:45.582Z,12.90
2023-03-06T07:04:14.102Z,12.68
2023-03-06T07:06:42.850Z,12.54
2023-03-06T07:09:12.250Z,12.48
2023-03-06T07:11:41.329Z,12.44
2023-03-06T07:14:09.401Z,12.56
2023-03-06T07:16:37.469Z,12.82
2023-03-06T07:19:06.140Z,13.24
2023-03-06T07:21:34.342Z,13.49
2023-03-06T07:24:02.389Z,13.43
2023-03-06T07:26:32.786Z,13.10
2023-03-06T07:29:03.737Z,12.74
2023-03-06T07:31:32.018Z,12.24
2023-03-06T07:34:00.845Z,11.95
2023-03-06T07:36:29.627Z,11.68
2023-03-06T07:38:57.726Z,11.25
2023-03-06T07:41:25.838Z,10.90
2023-03-06T07:43:53.749Z,10.73
2023-03-06T07:46:21.797Z,10.50
2023-03-06T07:48:49.747Z,10.34
2023-03-06T07:51:19.374Z,10.27
2023-03-06T07:53:48.101Z,10.24
2023-03-06T07:56:16.545Z,10.19
2023-03-06T07:58:45.571Z,10.06
2023-03-06T08:01:15.347Z,10.09
2023-03-06T08:03:43.501Z,10.12
2023-03-06T08:06:12.859Z,10.08
2023-03-06T08:08:42.214Z,9.96
2023-03-06T08:11:11.469Z,9.85
2023-03-06T08:13:39.782Z,9.75
2023-03-06T08:16:08.087Z,9.65
2023-03-06T08:18:36.516Z,9.57
2023-03-06T08:21:06.376Z,9.56
2023-03-06T08:23:34.935Z,9.45
2023-03-06T08:26:04.859Z,9.22
2023-03-06T08:28:33.249Z,9.10
2023-03-06T08:31:08.377Z,8.97
2023-03-06T08:33:36.513Z,8.78
2023-03-06T08:36:04.700Z,8.68
2023-03-06T08:38:32.671Z,8.54
2023-03-06T08:41:00.818Z,8.41
2023-03-06T08:43:29.003Z,8.30
2023-03-06T08:45:58.341Z,8.21
2023-03-06T08:48:26.472Z,8.15
2023-03-06T08:50:54.971Z,8.00
2023-03-06T08:53:33.452Z,7.89
2023-03-06T08:56:21.274Z,7.82
2023-03-06T08:58:50.140Z,7.69
2023-03-06T09:01:26.123Z,7.56
2023-03-06T09:03:56.010Z,7.49
2023-03-06T09:06:26.003Z,7.45
2023-03-06T09:08:54.895Z,7.40
2023-03-06T09:11:24.642Z,7.36
2023-03-06T09:13:53.691Z,7.37
2023-03-06T09:16:22.040Z,7.40
2023-03-06T09:18:53.131Z,7.44
2023-03-06T09:21:21.995Z,7.50
2023-03-06T09:23:50.080Z,7.54
2023-03-06T09:26:18.890Z,7.61
2023-03-06T09:28:47.104Z,7.70
2023-03-06T09:31:17.416Z,7.82
2023-03-06T09:33:46.041Z,7.95
2023-03-06T09:36:16.028Z,8.04
2023-03-06T09:38:45.963Z,8.17
2023-03-06T09:41:43.527Z,8.28
2023-03-06T09:44:16.855Z,8.42
2023-03-06T09:46:47.414Z,8.52
2023-03-06T09:49:15.388Z,8.59
2023-03-06T09:51:49.996Z,8.64
2023-03-06T09:54:22.530Z,8.68
2023-03-06T09:56:50.692Z,8.75
2023-03-06T09:59:23.862Z,8.85
2023-03-06T10:01:58.767Z,8.97
2023-03-06T10:04:37.174Z,9.02
2023-03-06T10:07:25.980Z,9.04
2023-03-06T10:09:57.137Z,9.21
2023-03-06T10:12:28.895Z,9.30
2023-03-06T10:14:59.732Z,9.38
2023-03-06T10:17:31.346Z,9.42
2023-03-06T10:19:59.293Z,9.38
2023-03-06T10:22:30.736Z,9.34
2023-03-06T10:25:08.358Z,9.28
2023-03-06T10:27:42.613Z,9.30
2023-03-06T10:30:30.659Z,9.33
2023-03-06T10:33:09.028Z,9.33
2023-03-06T10:35:47.580Z,9.37
2023-03-06T10:38:18.734Z,9.43
2023-03-06T10:40:51.358Z,9.61
2023-03-06T10:43:19.769Z,9.76
2023-03-06T10:45:49.824Z,9.88
2023-03-06T10:48:28.111Z,10.04
2023-03-06T10:51:19.456Z,10.25
2023-03-06T10:53:50.832Z,10.60
2023-03-06T10:56:35.857Z,10.92
2023-03-06T10:59:08.681Z,11.13
2023-03-06T11:01:37.043Z,11.33
2023-03-06T11:04:26.482Z,11.54
2023-03-06T11:07:14.521Z,11.77
2023-03-06T11:10:02.869Z,12.03
2023-03-06T11:12:32.502Z,12.20
2023-03-06T11:15:06.709Z,12.32
2023-03-06T11:17:36.258Z,12.46
2023-03-06T11:20:15.528Z,12.54
2023-03-06T11:22:49.094Z,12.57
2023-03-06T11:25:19.260Z,12.52
2023-03-06T11:27:52.863Z,12.39
2023-03-06T11:30:24.361Z,12.42
2023-03-06T11:32:57.760Z,12.43
2023-03-06T11:35:36.062Z,12.43
2023-03-06T11:38:14.418Z,12.49
2023-03-06T11:40:54.157Z,12.54
2023-03-06T11:43:25.509Z,12.76
2023-03-06T11:46:02.323Z,12.85
2023-03-06T11:48:42.482Z,12.97
2023-03-06T11:51:33.889Z,13.02
2023-03-06T11:54:02.722Z,12.92
2023-03-06T11:56:48.457Z,12.71
2023-03-06T11:59:27.234Z,12.55
2023-03-06T12:02:14.191Z,12.44
2023-03-06T12:05:01.263Z,12.27
2023-03-06T12:07:33.067Z,12.16
2023-03-06T12:10:09.933Z,12.03
2023-03-06T12:12:47.403Z,11.87
2023-03-06T12:15:15.468Z,11.79
2023-03-06T12:18:02.355Z,11.75
2023-03-06T12:20:33.305Z,11.69
2023-03-06T12:23:21.694Z,11.61
2023-03-06T12:25:54.352Z,11.46
2023-03-06T12:28:25.412Z,11.27
2023-03-06T12:31:12.444Z,11.13
2023-03-06T12:34:03.785Z,11.02
2023-03-06T12:36:31.887Z,11.05
2023-03-06T12:39:17.652Z,11.24
2023-03-06T12:42:11.304Z,11.66
2023-03-06T12:44:42.542Z,11.94
2023-03-06T12:47:11.858Z,11.95
2023-03-06T12:49:42.491Z,11.91
2023-03-06T12:52:21.610Z,11.70
2023-03-06T12:54:53.843Z,11.47
2023-03-06T12:57:24.142Z,11.21
2023-03-06T12:59:52.864Z,10.92
2023-03-06T13:02:39.460Z,10.76
2023-03-06T13:05:27.430Z,10.75
2023-03-06T13:08:14.376Z,10.93
2023-03-06T13:10:43.676Z,11.16
2023-03-06T13:13:30.807Z,11.38
2023-03-06T13:16:11.240Z,11.50
2023-03-06T13:18:42.106Z,11.51
2023-03-06T13:21:30.006Z,11.48
2023-03-06T13:24:04.944Z,11.52
2023-03-06T13:26:32.978Z,11.59
2023-03-06T13:29:01.846Z,11.57
2023-03-06T13:31:32.855Z,11.58
2023-03-06T13:34:02.531Z,11.60
2023-03-06T13:36:31.741Z,11.59
2023-03-06T13:39:01.251Z,11.61
2023-03-06T13:41:32.210Z,11.62
2023-03-06T13:44:01.938Z,11.60
2023-03-06T13:46:37.302Z,11.64
2023-03-06T13:49:08.365Z,11.59
2023-03-06T13:51:41.923Z,11.62
2023-03-06T13:54:09.852Z,11.70
2023-03-06T13:56:56.605Z,11.73
2023-03-06T13:59:24.570Z,11.71
2023-03-06T14:01:58.827Z,11.63
2023-03-06T14:04:35.991Z,11.57
2023-03-06T14:07:07.089Z,11.49
2023-03-06T14:09:37.308Z,11.43
2023-03-06T14:12:07.288Z,11.41
2023-03-06T14:14:40.427Z,11.34
2023-03-06T14:17:15.421Z,11.20
2023-03-06T14:19:43.455Z,11.07
2023-03-06T14:22:19.228Z,10.95
2023-03-06T14:24:56.516Z,10.80
2023-03-06T14:27:42.696Z,10.64
2023-03-06T14:30:15.457Z,10.56
2023-03-06T14:32:44.105Z,10.52
2023-03-06T14:35:20.471Z,10.45
2023-03-06T14:37:53.278Z,10.39
2023-03-06T14:40:24.837Z,10.31
2023-03-06T14:43:09.494Z,10.19
2023-03-06T14:45:37.491Z,10.07
2023-03-06T14:48:06.320Z,9.99
2023-03-06T14:50:35.566Z,9.89
2023-03-06T14:53:06.920Z,9.80
2023-03-06T14:55:35.804Z,9.72
2023-03-06T14:58:03.978Z,9.66
2023-03-06T15:00:35.835Z,9.60
2023-03-06T15:03:06.288Z,9.54
2023-03-06T15:05:34.645Z,9.49
2023-03-06T15:08:05.418Z,9.42
2023-03-06T15:10:34.515Z,9.37
2023-03-06T15:13:20.469Z,9.30
2023-03-06T15:15:55.653Z,9.24
2023-03-06T15:18:32.958Z,9.17
2023-03-06T15:21:07.904Z,9.10
2023-03-06T15:23:37.904Z,9.03
2023-03-06T15:26:24.863Z,8.98
2023-03-06T15:29:11.545Z,8.91
2023-03-06T15:31:41.389Z,8.84
2023-03-06T15:34:09.346Z,8.77
2023-03-06T15:36:40.122Z,8.70
2023-03-06T15:39:27.853Z,8.62
2023-03-06T15:42:16.273Z,8.55
2023-03-06T15:44:47.938Z,8.45
2023-03-06T15:47:16.504Z,8.37
2023-03-06T15:49:44.472Z,8.29
2023-03-06T15:52:15.006Z,8.19
2023-03-06T15:54:43.083Z,8.10
2023-03-06T15:57:18.486Z,7.99
2023-03-06T15:59:46.702Z,7.88
2023-03-06T16:02:16.818Z,7.77
2023-03-06T16:04:45.504Z,7.66
2023-03-06T16:07:14.906Z,7.55
2023-03-06T16:09:43.707Z,7.43
2023-03-06T16:12:19.564Z,7.30
2023-03-06T16:14:48.578Z,7.17
2023-03-06T16:17:16.955Z,7.04
2023-03-06T16:19:45.403Z,6.91
2023-03-06T16:22:13.888Z,6.78
2023-03-06T16:24:43.528Z,6.65
2023-03-06T16:27:16.786Z,6.51
2023-03-06T16:29:44.770Z,6.38
2023-03-06T16:32:12.955Z,6.26
2023-03-06T16:34:41.167Z,6.14
2023-03-06T16:37:11.440Z,6.03
2023-03-06T16:39:39.516Z,5.92
2023-03-06T16:42:07.570Z,5.81
2023-03-06T16:44:35.743Z,5.72
2023-03-06T16:47:04.126Z,5.62
2023-03-06T16:49:32.264Z,5.52
2023-03-06T16:52:00.778Z,5.42
2023-03-06T16:54:28.717Z,5.34
2023-03-06T16:56:56.790Z,5.25
2023-03-06T16:59:25.433Z,5.19
2023-03-06T17:01:53.360Z,5.12
2023-03-06T17:04:21.468Z,5.06
2023-03-06T17:06:49.722Z,5.00
2023-03-06T17:09:17.908Z,4.96
2023-03-06T17:11:47.038Z,4.90
2023-03-06T17:14:15.237Z,4.84
2023-03-06T17:16:43.157Z,4.80
2023-03-06T17:19:14.450Z,4.75
2023-03-06T17:21:43.676Z,4.69
2023-03-06T17:24:11.997Z,4.63
2023-03-06T17:26:40.387Z,4.58
2023-03-06T17:29:09.753Z,4.53
2023-03-06T17:31:38.083Z,4.47
2023-03-06T17:34:06.560Z,4.42
2023-03-06T17:36:34.770Z,4.37
2023-03-06T17:39:03.202Z,4.31
2023-03-06T17:41:32.982Z,4.24
2023-03-06T17:44:01.929Z,4.17
2023-03-06T17:46:32.345Z,4.10
2023-03-06T17:49:00.733Z,4.04
2023-03-06T17:51:28.851Z,3.98
2023-03-06T17:53:57.576Z,3.90
2023-03-06T17:56:26.288Z,3.84
2023-03-06T17:58:54.557Z,3.78
2023-03-06T18:01:27.568Z,3.72
2023-03-06T18:03:55.867Z,3.65
2023-03-06T18:06:25.209Z,3.58
2023-03-06T18:08:54.567Z,3.52
2023-03-06T18:11:23.184Z,3.45
2023-03-06T18:13:51.434Z,3.39
2023-03-06T18:16:21.378Z,3.32
2023-03-06T18:18:53.852Z,3.25
2023-03-06T18:21:22.834Z,3.20
2023-03-06T18:23:51.194Z,3.14
2023-03-06T18:26:21.274Z,3.08
2023-03-06T18:28:54.057Z,3.04
2023-03-06T18:31:27.864Z,3.00
2023-03-06T18:33:57.160Z,2.95
2023-03-06T18:36:26.610Z,2.90
2023-03-06T18:38:55.952Z,2.85
2023-03-06T18:41:24.228Z,2.80
2023-03-06T18:43:53.194Z,2.74
2023-03-06T18:46:21.596Z,2.69
2023-03-06T18:48:49.689Z,2.63
2023-03-06T18:51:19.488Z,2.58
2023-03-06T18:53:47.971Z,2.55
2023-03-06T18:56:18.284Z,2.51
2023-03-06T18:58:46.766Z,2.47
2023-03-06T19:01:17.743Z,2.42
2023-03-06T19:03:46.303Z,2.36
2023-03-06T19:06:17.251Z,2.31
2023-03-06T19:08:45.986Z,2.27
2023-03-06T19:11:15.423Z,2.23
2023-03-06T19:13:44.010Z,2.19
2023-03-06T19:16:19.738Z,2.15
2023-03-06T19:18:47.941Z,2.15
2023-03-06T19:21:17.710Z,2.14
2023-03-06T19:23:46.188Z,2.12
2023-03-06T19:26:15.418Z,2.12
2023-03-06T19:28:43.991Z,2.10
2023-03-06T19:31:13.989Z,2.09
2023-03-06T19:33:42.966Z,2.07
2023-03-06T19:36:13.196Z,2.03
2023-03-06T19:38:42.071Z,1.99
2023-03-06T19:41:13.924Z,1.97
2023-03-06T19:43:42.689Z,1.95
2023-03-06T19:46:12.243Z,1.94
2023-03-06T19:48:41.374Z,1.91
2023-03-06T19:51:10.537Z,1.89
2023-03-06T19:53:40.356Z,1.86
2023-03-06T19:56:13.345Z,1.83
2023-03-06T19:58:41.624Z,1.80
2023-03-06T20:01:11.533Z,1.77
2023-03-06T20:03:39.907Z,1.72
2023-03-06T20:06:12.034Z,1.68
2023-03-06T20:08:40.069Z,1.63
2023-03-06T20:11:14.823Z,1.58
2023-03-06T20:13:47.522Z,1.54
2023-03-06T20:16:16.760Z,1.50
2023-03-06T20:18:45.643Z,1.47
2023-03-06T20:21:14.229Z,1.44
2023-03-06T20:23:42.729Z,1.39
2023-03-06T20:26:12.558Z,1.37
2023-03-06T20:28:41.618Z,1.36
2023-03-06T20:31:11.375Z,1.34
2023-03-06T20:33:39.811Z,1.32
2023-03-06T20:36:15.478Z,1.29
2023-03-06T20:38:44.049Z,1.29
2023-03-06T20:41:19.485Z,1.29
2023-03-06T20:43:47.572Z,1.33
2023-03-06T20:46:16.070Z,1.37
2023-03-06T20:48:44.855Z,1.42
2023-03-06T20:51:20.792Z,1.50
2023-03-06T20:53:50.066Z,1.59
2023-03-06T20:56:20.008Z,1.66
2023-03-06T20:58:48.180Z,1.72
2023-03-06T21:01:42.531Z,1.77
2023-03-06T21:04:13.754Z,1.82
2023-03-06T21:06:45.477Z,1.85
2023-03-06T21:09:15.935Z,1.89
2023-03-06T21:11:44.481Z,1.92
2023-03-06T21:14:14.470Z,1.96
2023-03-06T21:16:43.005Z,2.01
2023-03-06T21:19:11.173Z,2.07
2023-03-06T21:21:39.232Z,2.11
2023-03-06T21:24:07.707Z,2.17
2023-03-06T21:26:36.000Z,2.22
2023-03-06T21:29:04.141Z,2.29
2023-03-06T21:31:33.586Z,2.36
2023-03-06T21:34:04.481Z,2.42
2023-03-06T21:36:33.516Z,2.46
2023-03-06T21:39:01.688Z,2.50
2023-03-06T21:41:32.456Z,2.55
2023-03-06T21:44:02.124Z,2.60
2023-03-06T21:46:30.911Z,2.63
2023-03-06T21:48:58.990Z,2.67
2023-03-06T21:51:27.458Z,2.71
2023-03-06T21:53:55.951Z,2.74
2023-03-06T21:56:25.573Z,2.77
2023-03-06T21:58:54.130Z,2.81
2023-03-06T22:01:24.311Z,2.84
2023-03-06T22:03:52.677Z,2.89
2023-03-06T22:06:22.444Z,2.95
2023-03-06T22:08:50.720Z,3.01
2023-03-06T22:11:19.882Z,3.08
2023-03-06T22:13:50.962Z,3.15
2023-03-06T22:16:21.022Z,3.21
2023-03-06T22:18:50.073Z,3.28
2023-03-06T22:21:19.810Z,3.37
2023-03-06T22:23:52.265Z,3.44
2023-03-06T22:26:20.943Z,3.52
2023-03-06T22:28:49.440Z,3.57
2023-03-06T22:31:19.074Z,3.61
2023-03-06T22:33:50.182Z,3.64
2023-03-06T22:36:18.384Z,3.65
2023-03-06T22:38:47.241Z,3.70
2023-03-06T22:41:17.376Z,3.74
2023-03-06T22:43:45.429Z,3.76
2023-03-06T22:46:15.002Z,3.79
2023-03-06T22:48:43.966Z,3.79
2023-03-06T22:51:13.446Z,3.78
2023-03-06T22:53:42.357Z,3.78
2023-03-06T22:56:11.611Z,3.79
2023-03-06T22:58:40.432Z,3.80
2023-03-06T23:01:09.997Z,3.80
2023-03-06T23:03:38.913Z,3.80
2023-03-06T23:06:11.702Z,3.78
2023-03-06T23:08:40.589Z,3.78
2023-03-06T23:11:10.095Z,3.78
2023-03-06T23:13:57.623Z,3.79
2023-03-06T23:16:44.963Z,3.80
2023-03-06T23:19:32.272Z,3.80
2023-03-06T23:22:19.799Z,3.79
2023-03-06T23:25:07.536Z,3.77
2023-03-06T23:27:36.138Z,3.75
2023-03-06T23:30:09.141Z,3.73
2023-03-06T23:32:37.249Z,3.70
2023-03-06T23:35:05.560Z,3.68
2023-03-06T23:37:33.629Z,3.64
2023-03-06T23:40:01.909Z,3.60
2023-03-06T23:42:29.976Z,3.54
2023-03-06T23:44:58.357Z,3.48
2023-03-06T23:47:26.428Z,3.41
2023-03-06T23:49:54.618Z,3.36
2023-03-06T23:52:23.394Z,3.32
2023-03-06T23:54:51.464Z,3.28
2023-03-06T23:57:19.739Z,3.27
2023-03-06T23:59:48.028Z,3.24
